createdAt,value
2023-01-22T00:02:12.833Z,23.10
2023-01-22T00:04:39.427Z,23.10
2023-01-22T00:07:06.006Z,23.15
2023-01-22T00:09:32.551Z,22.52
2023-01-22T00:11:59.164Z,22.88
2023-01-22T00:14:25.807Z,23.35
2023-01-22T00:16:52.434Z,22.38
2023-01-22T00:19:19.024Z,23.38
2023-01-22T00:21:45.599Z,23.40
2023-01-22T00:24:12.607Z,24.48
2023-01-22T00:26:39.333Z,23.67
2023-01-22T00:29:06.322Z,23.40
2023-01-22T00:31:32.987Z,23.73
2023-01-22T00:33:59.656Z,23.80
2023-01-22T00:36:26.325Z,23.77
2023-01-22T00:38:52.940Z,23.73
2023-01-22T00:41:20.276Z,23.58
2023-01-22T00:43:47.381Z,23.20
2023-01-22T00:46:15.974Z,23.80
2023-01-22T00:48:45.210Z,24.35
2023-01-22T00:51:14.833Z,24.25
2023-01-22T00:53:43.619Z,24.90
2023-01-22T00:56:11.626Z,24.17
2023-01-22T00:58:38.242Z,24.83
2023-01-22T01:01:06.027Z,24.70
2023-01-22T01:03:33.939Z,24.40
2023-01-22T01:06:10.750Z,24.50
2023-01-22T01:08:42.512Z,25.60
2023-01-22T01:11:13.583Z,24.55
2023-01-22T01:13:45.258Z,25.00
2023-01-22T01:16:15.762Z,24.60
2023-01-22T01:18:43.202Z,24.77
2023-01-22T01:21:12.040Z,25.20
2023-01-22T01:23:39.543Z,25.50
2023-01-22T01:26:10.311Z,26.02
2023-01-22T01:28:38.144Z,24.27
2023-01-22T01:31:06.742Z,25.13
2023-01-22T01:33:33.476Z,26.70
2023-01-22T01:36:02.632Z,25.10
2023-01-22T01:38:29.403Z,23.17
2023-01-22T01:40:56.021Z,23.90
2023-01-22T01:43:22.666Z,23.80
2023-01-22T01:45:49.643Z,23.95
2023-01-22T01:48:24.203Z,23.35
2023-01-22T01:51:10.507Z,24.00
2023-01-22T01:53:39.736Z,23.92
2023-01-22T01:56:11.064Z,24.05
2023-01-22T01:58:39.837Z,23.65
2023-01-22T02:01:11.982Z,23.58
2023-01-22T02:03:40.491Z,22.90
2023-01-22T02:06:11.039Z,22.38
2023-01-22T02:08:38.196Z,23.27
2023-01-22T02:11:05.015Z,21.30
2023-01-22T02:13:33.973Z,21.92
2023-01-22T02:16:00.918Z,21.77
2023-01-22T02:18:27.736Z,21.35
2023-01-22T02:21:00.747Z,22.13
2023-01-22T02:23:30.330Z,21.70
2023-01-22T02:25:58.511Z,21.90
2023-01-22T02:28:25.286Z,21.83
2023-01-22T02:30:51.873Z,21.95
2023-01-22T02:33:18.443Z,21.55
2023-01-22T02:35:45.222Z,21.83
2023-01-22T02:38:11.796Z,20.83
2023-01-22T02:40:49.196Z,20.88
2023-01-22T02:43:16.487Z,22.08
2023-01-22T02:45:43.286Z,21.92
2023-01-22T02:48:09.947Z,20.55
2023-01-22T02:50:36.560Z,21.70
2023-01-22T02:53:03.196Z,21.52
2023-01-22T02:55:29.779Z,22.08
2023-01-22T02:57:56.526Z,20.90
2023-01-22T03:00:23.188Z,20.20
2023-01-22T03:02:49.768Z,21.35
2023-01-22T03:05:16.381Z,21.33
2023-01-22T03:07:44.837Z,21.27
2023-01-22T03:10:17.820Z,21.13
2023-01-22T03:13:04.299Z,21.98
2023-01-22T03:15:49.683Z,21.73
2023-01-22T03:18:34.902Z,21.83
2023-01-22T03:21:16.661Z,21.42
2023-01-22T03:23:46.387Z,21.10
2023-01-22T03:26:13.554Z,22.08
2023-01-22T03:28:40.175Z,23.63
2023-01-22T03:31:06.880Z,23.63
2023-01-22T03:33:33.544Z,23.77
2023-01-22T03:36:04.790Z,23.38
2023-01-22T03:38:32.018Z,24.75
2023-01-22T03:41:07.937Z,23.60
2023-01-22T03:43:35.560Z,25.05
2023-01-22T03:46:13.275Z,25.17
2023-01-22T03:48:40.294Z,24.95
2023-01-22T03:51:17.334Z,26.15
2023-01-22T03:53:45.150Z,26.67
2023-01-22T03:56:22.503Z,26.25
2023-01-22T03:58:49.931Z,27.00
2023-01-22T04:01:19.161Z,28.05
2023-01-22T04:03:46.530Z,27.65
2023-01-22T04:06:14.155Z,29.13
2023-01-22T04:08:43.201Z,30.70
2023-01-22T04:11:10.830Z,34.75
2023-01-22T04:13:39.735Z,31.92
2023-01-22T04:16:07.412Z,31.00
2023-01-22T04:18:34.228Z,30.60
2023-01-22T04:21:01.045Z,32.78
2023-01-22T04:23:27.752Z,33.15
2023-01-22T04:25:54.562Z,31.38
2023-01-22T04:28:21.550Z,34.97
2023-01-22T04:30:52.130Z,36.25
2023-01-22T04:33:19.018Z,37.85
2023-01-22T04:35:49.094Z,36.33
2023-01-22T04:38:15.656Z,35.00
2023-01-22T04:40:42.232Z,35.75
2023-01-22T04:43:10.046Z,39.25
2023-01-22T04:45:36.740Z,41.25
2023-01-22T04:48:03.581Z,42.60
2023-01-22T04:50:32.821Z,43.42
2023-01-22T04:53:00.381Z,45.78
2023-01-22T04:55:27.820Z,44.53
2023-01-22T04:57:56.493Z,42.58
2023-01-22T05:00:24.008Z,41.08
2023-01-22T05:02:50.862Z,40.90
2023-01-22T05:05:17.601Z,43.92
2023-01-22T05:07:44.181Z,44.75
2023-01-22T05:10:10.964Z,41.72
2023-01-22T05:12:37.569Z,43.95
2023-01-22T05:15:14.947Z,44.05
2023-01-22T05:17:45.245Z,42.53
2023-01-22T05:20:12.031Z,44.15
2023-01-22T05:22:38.711Z,46.83
2023-01-22T05:25:06.326Z,45.88
2023-01-22T05:27:32.975Z,46.20
2023-01-22T05:29:59.610Z,46.97
2023-01-22T05:32:26.175Z,45.80
2023-01-22T05:34:52.819Z,46.05
2023-01-22T05:37:19.382Z,46.40
2023-01-22T05:39:45.945Z,43.15
2023-01-22T05:42:14.985Z,42.55
2023-01-22T05:44:42.039Z,45.53
2023-01-22T05:47:09.207Z,45.10
2023-01-22T05:49:35.899Z,42.03
2023-01-22T05:52:02.424Z,43.75
2023-01-22T05:54:29.040Z,43.97
2023-01-22T05:56:55.563Z,46.30
2023-01-22T05:59:22.127Z,45.20
2023-01-22T06:01:48.688Z,47.13
2023-01-22T06:04:15.238Z,46.22
2023-01-22T06:06:41.811Z,45.65
2023-01-22T06:09:08.422Z,45.97
2023-01-22T06:11:34.977Z,43.80
2023-01-22T06:14:01.558Z,44.00
2023-01-22T06:16:28.152Z,44.33
2023-01-22T06:18:54.976Z,47.92
2023-01-22T06:21:21.535Z,47.67
2023-01-22T06:23:48.090Z,47.30
2023-01-22T06:26:14.660Z,48.38
2023-01-22T06:28:41.250Z,48.13
2023-01-22T06:31:08.073Z,49.70
2023-01-22T06:33:35.618Z,48.70
2023-01-22T06:36:03.255Z,49.20
2023-01-22T06:38:30.727Z,51.00
2023-01-22T06:40:59.370Z,50.53
2023-01-22T06:43:27.242Z,49.38
2023-01-22T06:45:54.520Z,49.33
2023-01-22T06:48:21.155Z,49.50
2023-01-22T06:50:47.787Z,52.85
2023-01-22T06:53:14.498Z,51.78
2023-01-22T06:55:41.435Z,52.05
2023-01-22T06:58:08.012Z,51.08
2023-01-22T07:00:34.594Z,51.28
2023-01-22T07:03:05.712Z,53.20
2023-01-22T07:05:32.365Z,53.35
2023-01-22T07:07:58.939Z,53.58
2023-01-22T07:10:25.499Z,50.85
2023-01-22T07:12:55.597Z,54.10
2023-01-22T07:15:22.364Z,52.50
2023-01-22T07:17:52.709Z,54.75
2023-01-22T07:20:20.745Z,54.45
2023-01-22T07:22:47.424Z,55.80
2023-01-22T07:25:14.441Z,56.75
2023-01-22T07:27:41.597Z,54.25
2023-01-22T07:30:09.119Z,49.70
2023-01-22T07:32:36.200Z,46.75
2023-01-22T07:35:02.787Z,45.05
2023-01-22T07:37:29.356Z,41.97
2023-01-22T07:39:55.883Z,39.17
2023-01-22T07:42:22.448Z,38.50
2023-01-22T07:44:48.983Z,37.03
2023-01-22T07:47:15.645Z,37.95
2023-01-22T07:49:42.195Z,39.47
2023-01-22T07:52:08.938Z,36.60
2023-01-22T07:54:36.527Z,37.88
2023-01-22T07:57:03.908Z,37.63
2023-01-22T07:59:30.721Z,36.00
2023-01-22T08:01:57.509Z,35.72
2023-01-22T08:04:24.863Z,31.95
2023-01-22T08:06:52.191Z,32.00
2023-01-22T08:09:24.902Z,31.52
2023-01-22T08:11:53.119Z,31.25
2023-01-22T08:14:20.126Z,34.75
2023-01-22T08:16:47.053Z,33.25
2023-01-22T08:19:13.842Z,35.55
2023-01-22T08:21:40.511Z,41.75
2023-01-22T08:24:08.269Z,38.97
2023-01-22T08:26:35.203Z,38.85
2023-01-22T08:29:05.299Z,34.63
2023-01-22T08:31:33.951Z,30.60
2023-01-22T08:34:00.962Z,27.80
2023-01-22T08:36:27.674Z,26.70
2023-01-22T08:38:54.410Z,25.83
2023-01-22T08:41:21.426Z,25.23
2023-01-22T08:43:47.997Z,24.80
2023-01-22T08:46:16.296Z,24.10
2023-01-22T08:48:44.219Z,23.95
2023-01-22T08:51:12.177Z,25.65
2023-01-22T08:53:38.878Z,27.25
2023-01-22T08:56:06.342Z,30.38
2023-01-22T08:58:33.242Z,30.13
2023-01-22T09:00:59.940Z,30.80
2023-01-22T09:03:26.557Z,31.17
2023-01-22T09:05:53.161Z,31.77
2023-01-22T09:08:20.375Z,30.45
2023-01-22T09:10:47.944Z,31.63
2023-01-22T09:13:14.545Z,33.78
2023-01-22T09:15:41.154Z,34.65
2023-01-22T09:18:08.153Z,34.03
2023-01-22T09:20:34.812Z,33.63
2023-01-22T09:23:01.435Z,32.03
2023-01-22T09:25:29.227Z,33.72
2023-01-22T09:28:00.449Z,34.90
2023-01-22T09:30:29.893Z,37.00
2023-01-22T09:32:56.648Z,37.55
2023-01-22T09:35:23.288Z,38.50
2023-01-22T09:37:49.885Z,40.60
2023-01-22T09:40:31.711Z,41.13
2023-01-22T09:43:34.931Z,40.90
2023-01-22T09:46:15.559Z,41.53
2023-01-22T09:48:48.099Z,44.28
2023-01-22T09:51:15.727Z,45.80
2023-01-22T09:53:46.596Z,44.92
2023-01-22T09:56:29.085Z,46.83
2023-01-22T09:58:57.657Z,45.42
2023-01-22T10:01:25.369Z,47.83
2023-01-22T10:04:00.080Z,47.28
2023-01-22T10:09:11.143Z,47.17
2023-01-22T10:11:38.583Z,49.78
2023-01-22T10:14:08.548Z,52.38
2023-01-22T10:16:36.453Z,53.35
2023-01-22T10:19:12.133Z,53.35
2023-01-22T10:21:47.647Z,54.75
2023-01-22T10:24:14.368Z,53.75
2023-01-22T10:26:46.406Z,52.50
2023-01-22T10:29:21.883Z,52.17
2023-01-22T10:31:52.989Z,51.85
2023-01-22T10:34:34.450Z,51.33
2023-01-22T10:37:13.385Z,50.47
2023-01-22T10:39:47.497Z,48.80
2023-01-22T10:42:21.314Z,49.38
2023-01-22T10:44:49.559Z,49.77
2023-01-22T10:47:22.197Z,50.63
2023-01-22T10:50:01.071Z,50.75
2023-01-22T10:52:36.387Z,49.35
2023-01-22T10:55:03.764Z,52.40
2023-01-22T10:57:34.360Z,48.88
2023-01-22T11:00:21.091Z,44.63
2023-01-22T11:02:50.478Z,44.72
2023-01-22T11:05:22.212Z,43.78
2023-01-22T11:07:53.393Z,47.60
2023-01-22T11:10:25.196Z,39.70
2023-01-22T11:13:12.936Z,39.78
2023-01-22T11:15:58.048Z,40.90
2023-01-22T11:18:38.907Z,41.00
2023-01-22T11:21:18.753Z,42.05
2023-01-22T11:24:04.556Z,43.33
2023-01-22T11:26:48.526Z,43.10
2023-01-22T11:29:30.289Z,42.28
2023-01-22T11:32:44.319Z,41.28
2023-01-22T11:35:17.136Z,41.50
2023-01-22T11:37:58.187Z,41.63
2023-01-22T11:40:30.751Z,43.55
2023-01-22T11:43:18.000Z,45.95
2023-01-22T11:45:54.442Z,49.58
2023-01-22T11:48:26.944Z,50.95
2023-01-22T11:51:08.035Z,51.08
2023-01-22T11:54:04.735Z,52.65
2023-01-22T11:56:58.461Z,52.25
2023-01-22T11:59:43.643Z,48.30
2023-01-22T12:02:32.071Z,47.10
2023-01-22T12:05:04.428Z,45.97
2023-01-22T12:08:12.850Z,47.47
2023-01-22T12:10:59.811Z,47.53
2023-01-22T12:13:57.514Z,49.30
2023-01-22T12:16:32.969Z,52.53
2023-01-22T12:19:20.842Z,52.00
2023-01-22T12:22:03.514Z,49.28
2023-01-22T12:24:56.492Z,46.75
2023-01-22T12:27:35.562Z,49.30
2023-01-22T12:30:08.143Z,50.63
2023-01-22T12:32:37.766Z,50.38
2023-01-22T12:35:06.230Z,49.10
2023-01-22T12:37:44.164Z,48.95
2023-01-22T12:40:26.372Z,48.15
2023-01-22T12:43:04.748Z,49.38
2023-01-22T12:45:40.474Z,48.00
2023-01-22T12:48:23.683Z,48.33
2023-01-22T12:50:53.019Z,47.75
2023-01-22T12:53:24.445Z,48.80
2023-01-22T12:56:09.792Z,48.88
2023-01-22T12:58:42.032Z,47.50
2023-01-22T13:01:11.527Z,50.17
2023-01-22T13:03:40.460Z,52.25
2023-01-22T13:06:29.898Z,52.20
2023-01-22T13:08:56.496Z,53.08
2023-01-22T13:11:38.043Z,51.17
2023-01-22T13:14:15.642Z,49.60
2023-01-22T13:16:54.487Z,50.50
2023-01-22T13:19:29.415Z,47.03
2023-01-22T13:22:00.905Z,50.50
2023-01-22T13:24:27.427Z,49.95
2023-01-22T13:27:02.501Z,51.42
2023-01-22T13:29:37.142Z,50.83
2023-01-22T13:34:32.513Z,44.92
2023-01-22T13:36:59.068Z,48.75
2023-01-22T13:39:27.346Z,49.97
2023-01-22T13:41:55.938Z,52.00
2023-01-22T13:44:26.521Z,50.45
2023-01-22T13:46:53.797Z,52.55
2023-01-22T13:49:29.083Z,51.10
2023-01-22T13:52:00.906Z,52.35
2023-01-22T13:54:33.492Z,52.03
2023-01-22T13:57:00.390Z,52.92
2023-01-22T13:59:34.986Z,53.13
2023-01-22T14:02:20.146Z,51.88
2023-01-22T14:04:47.643Z,50.83
2023-01-22T14:07:35.135Z,52.10
2023-01-22T14:10:30.822Z,50.95
2023-01-22T14:13:02.716Z,52.08
2023-01-22T14:15:29.668Z,52.92
2023-01-22T14:18:11.496Z,52.10
2023-01-22T14:20:42.731Z,50.78
2023-01-22T14:23:09.371Z,53.47
2023-01-22T14:25:41.735Z,53.63
2023-01-22T14:28:08.392Z,51.38
2023-01-22T14:30:35.243Z,54.47
2023-01-22T14:33:02.093Z,53.75
2023-01-22T14:35:29.302Z,53.47
2023-01-22T14:37:58.399Z,52.00
2023-01-22T14:40:26.883Z,53.20
2023-01-22T14:42:53.897Z,52.60
2023-01-22T14:45:21.166Z,52.90
2023-01-22T14:47:52.366Z,54.42
2023-01-22T14:50:20.752Z,54.47
2023-01-22T14:52:50.954Z,56.53
2023-01-22T14:55:18.199Z,54.92
2023-01-22T14:57:44.982Z,55.45
2023-01-22T15:00:14.164Z,54.75
2023-01-22T15:02:41.708Z,55.30
2023-01-22T15:05:09.846Z,54.35
2023-01-22T15:07:37.759Z,55.17
2023-01-22T15:10:06.070Z,52.72
2023-01-22T15:12:32.795Z,52.33
2023-01-22T15:14:59.376Z,54.67
2023-01-22T15:17:25.975Z,56.08
2023-01-22T15:19:52.653Z,53.25
2023-01-22T15:22:19.299Z,51.72
2023-01-22T15:24:45.983Z,52.65
2023-01-22T15:27:18.404Z,54.20
2023-01-22T15:29:46.256Z,51.40
2023-01-22T15:32:13.031Z,52.65
2023-01-22T15:34:39.636Z,54.08
2023-01-22T15:37:06.445Z,56.42
2023-01-22T15:39:32.992Z,55.42
2023-01-22T15:41:59.757Z,55.05
2023-01-22T15:44:26.348Z,54.30
2023-01-22T15:46:52.903Z,55.42
2023-01-22T15:49:20.352Z,54.88
2023-01-22T15:51:46.951Z,55.65
2023-01-22T15:54:15.516Z,54.25
2023-01-22T15:56:42.218Z,55.28
2023-01-22T15:59:09.017Z,55.13
2023-01-22T16:01:35.654Z,54.75
2023-01-22T16:04:03.059Z,54.47
2023-01-22T16:06:32.038Z,55.25
2023-01-22T16:09:00.395Z,56.55
2023-01-22T16:11:28.844Z,55.30
2023-01-22T16:13:56.215Z,53.53
2023-01-22T16:16:31.458Z,54.03
2023-01-22T16:19:00.127Z,54.65
2023-01-22T16:21:27.048Z,53.17
2023-01-22T16:23:59.358Z,54.50
2023-01-22T16:26:28.776Z,53.08
2023-01-22T16:28:56.854Z,55.25
2023-01-22T16:31:25.975Z,53.90
2023-01-22T16:33:58.400Z,54.70
2023-01-22T16:36:27.374Z,54.85
2023-01-22T16:38:53.997Z,54.35
2023-01-22T16:41:31.910Z,54.22
2023-01-22T16:44:07.341Z,53.63
2023-01-22T16:46:36.298Z,52.40
2023-01-22T16:49:08.721Z,53.08
2023-01-22T16:51:38.125Z,54.05
2023-01-22T16:54:06.388Z,52.70
2023-01-22T16:56:33.827Z,52.08
2023-01-22T16:59:01.015Z,51.45
2023-01-22T17:01:29.860Z,53.85
2023-01-22T17:03:56.876Z,52.50
2023-01-22T17:06:26.759Z,52.22
2023-01-22T17:08:54.080Z,52.47
2023-01-22T17:11:21.236Z,51.50
2023-01-22T17:13:48.230Z,51.60
2023-01-22T17:16:16.012Z,51.80
2023-01-22T17:18:42.669Z,52.85
2023-01-22T17:21:12.395Z,53.67
2023-01-22T17:23:39.025Z,51.35
2023-01-22T17:26:10.514Z,53.17
2023-01-22T17:28:39.557Z,50.35
2023-01-22T17:31:11.907Z,53.72
2023-01-22T17:33:38.955Z,52.33
2023-01-22T17:36:06.322Z,52.40
2023-01-22T17:38:37.578Z,52.78
2023-01-22T17:41:14.935Z,54.83
2023-01-22T17:43:43.741Z,52.20
2023-01-22T17:46:13.556Z,53.25
2023-01-22T17:48:40.484Z,50.67
2023-01-22T17:51:10.630Z,52.38
2023-01-22T17:53:39.145Z,51.55
2023-01-22T17:56:17.223Z,52.60
2023-01-22T17:58:46.999Z,51.17
2023-01-22T18:01:15.276Z,51.38
2023-01-22T18:03:41.867Z,52.08
2023-01-22T18:06:08.693Z,52.90
2023-01-22T18:08:38.503Z,52.38
2023-01-22T18:11:08.518Z,53.03
2023-01-22T18:13:38.221Z,52.70
2023-01-22T18:16:07.631Z,54.95
2023-01-22T18:18:34.765Z,52.63
2023-01-22T18:21:01.814Z,51.80
2023-01-22T18:23:28.531Z,51.80
2023-01-22T18:25:57.953Z,51.85
2023-01-22T18:28:26.615Z,51.08
2023-01-22T18:30:54.425Z,49.58
2023-01-22T18:33:21.517Z,50.95
2023-01-22T18:35:51.113Z,51.78
2023-01-22T18:38:20.771Z,50.33
2023-01-22T18:40:48.441Z,49.28
2023-01-22T18:43:15.317Z,48.67
2023-01-22T18:45:42.058Z,49.35
2023-01-22T18:48:13.311Z,50.97
2023-01-22T18:50:40.632Z,48.03
2023-01-22T18:53:08.036Z,48.80
2023-01-22T18:55:35.656Z,48.17
2023-01-22T18:58:33.978Z,48.88
2023-01-22T19:01:13.123Z,46.78
2023-01-22T19:03:44.729Z,47.47
2023-01-22T19:06:14.381Z,47.28
2023-01-22T19:08:43.167Z,50.03
2023-01-22T19:11:12.111Z,48.05
2023-01-22T19:13:42.394Z,48.47
2023-01-22T19:16:11.145Z,49.45
2023-01-22T19:18:42.249Z,48.70
2023-01-22T19:21:12.724Z,48.35
2023-01-22T19:23:47.981Z,49.15
2023-01-22T19:26:30.712Z,45.40
2023-01-22T19:29:02.958Z,46.97
2023-01-22T19:31:32.569Z,46.90
2023-01-22T19:34:00.631Z,45.17
2023-01-22T19:36:30.153Z,45.92
2023-01-22T19:38:58.927Z,44.70
2023-01-22T19:41:26.636Z,43.67
2023-01-22T19:43:59.175Z,44.17
2023-01-22T19:46:26.938Z,42.75
2023-01-22T19:48:54.930Z,42.75
2023-01-22T19:51:22.957Z,42.08
2023-01-22T19:53:49.874Z,43.42
2023-01-22T19:56:22.249Z,42.63
2023-01-22T19:58:50.234Z,42.47
2023-01-22T20:01:17.344Z,42.70
2023-01-22T20:03:44.511Z,43.65
2023-01-22T20:06:13.257Z,42.85
2023-01-22T20:08:39.887Z,41.90
2023-01-22T20:11:09.060Z,45.15
2023-01-22T20:13:37.166Z,42.75
2023-01-22T20:16:05.390Z,41.50
2023-01-22T20:18:33.055Z,40.65
2023-01-22T20:21:01.973Z,39.88
2023-01-22T20:23:29.671Z,40.58
2023-01-22T20:25:59.043Z,39.50
2023-01-22T20:28:25.830Z,39.90
2023-01-22T20:31:01.064Z,38.28
2023-01-22T20:33:28.349Z,37.90
2023-01-22T20:35:56.939Z,38.45
2023-01-22T20:38:23.871Z,37.67
2023-01-22T20:40:50.494Z,35.88
2023-01-22T20:43:17.875Z,36.45
2023-01-22T20:45:44.574Z,37.90
2023-01-22T20:48:11.222Z,36.22
2023-01-22T20:50:42.022Z,36.28
2023-01-22T20:53:08.624Z,36.30
2023-01-22T20:55:35.289Z,34.38
2023-01-22T20:58:01.929Z,34.53
2023-01-22T21:00:28.484Z,34.63
2023-01-22T21:02:55.105Z,36.05
2023-01-22T21:05:21.726Z,33.60
2023-01-22T21:07:48.410Z,32.45
2023-01-22T21:10:15.255Z,33.17
2023-01-22T21:12:42.226Z,31.42
2023-01-22T21:15:09.454Z,31.23
2023-01-22T21:17:36.863Z,32.63
2023-01-22T21:20:04.263Z,32.72
2023-01-22T21:22:30.887Z,32.80
2023-01-22T21:24:57.639Z,33.72
2023-01-22T21:27:24.235Z,33.63
2023-01-22T21:29:51.891Z,31.80
2023-01-22T21:32:19.204Z,31.70
2023-01-22T21:34:45.810Z,31.80
2023-01-22T21:37:12.364Z,30.48
2023-01-22T21:39:44.999Z,30.73
2023-01-22T21:42:31.324Z,31.38
2023-01-22T21:45:16.708Z,29.08
2023-01-22T21:47:43.244Z,30.83
2023-01-22T21:50:10.435Z,31.30
2023-01-22T21:52:36.979Z,31.05
2023-01-22T21:55:03.913Z,30.45
2023-01-22T21:57:30.468Z,30.77
2023-01-22T21:59:57.038Z,31.58
2023-01-22T22:02:23.648Z,31.27
2023-01-22T22:04:51.506Z,31.48
2023-01-22T22:07:18.351Z,31.23
2023-01-22T22:09:45.019Z,30.50
2023-01-22T22:12:11.898Z,31.17
2023-01-22T22:14:38.586Z,31.98
2023-01-22T22:17:05.184Z,32.08
2023-01-22T22:19:31.981Z,32.00
2023-01-22T22:21:58.636Z,31.65
2023-01-22T22:24:25.445Z,31.42
2023-01-22T22:26:52.072Z,33.08
2023-01-22T22:29:18.659Z,32.22
2023-01-22T22:31:45.276Z,33.63
2023-01-22T22:34:12.032Z,34.10
2023-01-22T22:36:38.838Z,34.35
2023-01-22T22:39:06.615Z,34.67
2023-01-22T22:41:36.159Z,36.28
2023-01-22T22:44:03.216Z,43.28
2023-01-22T22:46:32.445Z,45.58
2023-01-22T22:49:00.443Z,43.88
2023-01-22T22:51:32.866Z,37.42
2023-01-22T22:54:03.779Z,37.42
2023-01-22T22:56:31.081Z,33.60
2023-01-22T22:58:59.559Z,32.42
2023-01-22T23:01:28.247Z,33.42
2023-01-22T23:03:55.109Z,32.38
2023-01-22T23:06:27.860Z,30.55
2023-01-22T23:08:56.392Z,30.13
2023-01-22T23:11:26.072Z,29.70
2023-01-22T23:14:01.378Z,28.95
2023-01-22T23:16:34.941Z,28.02
2023-01-22T23:19:04.064Z,30.30
2023-01-22T23:21:30.794Z,29.67
2023-01-22T23:23:57.504Z,30.33
2023-01-22T23:26:29.911Z,30.25
2023-01-22T23:29:00.455Z,30.20
2023-01-22T23:31:28.772Z,29.70
2023-01-22T23:33:57.832Z,29.25
2023-01-22T23:36:28.218Z,30.23
2023-01-22T23:38:55.134Z,30.17
2023-01-22T23:41:22.301Z,29.15
2023-01-22T23:43:50.233Z,32.15
2023-01-22T23:46:24.129Z,30.58
2023-01-22T23:48:51.858Z,29.17
2023-01-22T23:51:19.359Z,30.10
2023-01-22T23:53:48.645Z,28.80
2023-01-22T23:56:15.523Z,29.63
2023-01-22T23:58:42.225Z,32.00
